createdAt,value
2023-02-11T05:00:36.682Z,6.00
2023-02-11T05:03:03.708Z,6.30
2023-02-11T05:05:30.346Z,6.55
2023-02-11T05:07:57.612Z,6.13
2023-02-11T05:10:24.665Z,6.03
2023-02-11T05:12:53.490Z,5.53
2023-02-11T05:15:22.021Z,6.10
2023-02-11T05:17:48.838Z,6.28
2023-02-11T05:20:16.110Z,6.63
2023-02-11T05:22:46.684Z,6.13
2023-02-11T05:25:16.800Z,7.07
2023-02-11T05:27:44.368Z,6.10
2023-02-11T05:30:12.114Z,6.40
2023-02-11T05:32:40.162Z,7.03
2023-02-11T05:35:06.856Z,6.53
2023-02-11T05:37:34.880Z,5.93
2023-02-11T05:40:01.627Z,6.35
2023-02-11T05:42:28.847Z,7.22
2023-02-11T05:44:55.685Z,6.57
2023-02-11T05:47:22.535Z,6.40
2023-02-11T05:49:49.478Z,6.38
2023-02-11T05:52:16.457Z,6.50
2023-02-11T05:54:44.113Z,7.03
2023-02-11T05:57:11.384Z,7.45
2023-02-11T05:59:39.204Z,6.78
2023-02-11T06:02:07.885Z,6.43
2023-02-11T06:04:35.005Z,6.22
2023-02-11T06:07:02.921Z,6.55
2023-02-11T06:09:29.612Z,5.93
2023-02-11T06:11:56.506Z,10.30
2023-02-11T06:14:23.177Z,13.52
2023-02-11T06:16:50.708Z,10.45
2023-02-11T06:19:17.750Z,9.15
2023-02-11T06:21:44.710Z,9.57
2023-02-11T06:24:12.050Z,8.55
2023-02-11T06:26:39.604Z,7.57
2023-02-11T06:29:06.378Z,8.90
2023-02-11T06:31:33.206Z,7.00
2023-02-11T06:33:59.945Z,7.65
2023-02-11T06:36:26.866Z,8.90
2023-02-11T06:38:53.698Z,7.82
2023-02-11T06:41:21.045Z,7.82
2023-02-11T06:43:47.896Z,6.75
2023-02-11T06:46:14.990Z,6.90
2023-02-11T06:48:44.475Z,6.35
2023-02-11T06:51:13.232Z,6.88
2023-02-11T06:53:42.757Z,7.35
2023-02-11T06:56:11.056Z,6.47
2023-02-11T06:58:40.912Z,6.78
2023-02-11T07:01:08.966Z,6.70
2023-02-11T07:03:36.552Z,6.55
2023-02-11T07:06:05.879Z,6.63
2023-02-11T07:08:36.356Z,6.70
2023-02-11T07:11:10.389Z,7.07
2023-02-11T07:13:37.258Z,6.93
2023-02-11T07:16:09.893Z,6.53
2023-02-11T07:18:42.820Z,6.97
2023-02-11T07:21:11.377Z,6.95
2023-02-11T07:23:39.673Z,6.78
2023-02-11T07:26:18.607Z,6.30
2023-02-11T07:28:45.501Z,6.40
2023-02-11T07:31:22.808Z,6.35
2023-02-11T07:33:49.900Z,6.60
2023-02-11T07:36:17.852Z,6.13
2023-02-11T07:38:45.571Z,6.35
2023-02-11T07:41:13.922Z,6.50
2023-02-11T07:43:41.164Z,6.18
2023-02-11T07:46:12.988Z,5.90
2023-02-11T07:48:40.111Z,6.00
2023-02-11T07:51:11.423Z,6.32
2023-02-11T07:53:38.648Z,6.13
2023-02-11T07:56:05.794Z,6.25
2023-02-11T07:58:32.632Z,6.30
2023-02-11T08:01:04.151Z,6.15
2023-02-11T08:03:31.509Z,6.47
2023-02-11T08:05:58.542Z,6.70
2023-02-11T08:08:27.992Z,6.15
2023-02-11T08:10:56.764Z,6.45
2023-02-11T08:13:23.863Z,6.43
2023-02-11T08:15:50.797Z,21.85
2023-02-11T08:18:19.184Z,10.75
2023-02-11T08:20:46.371Z,8.52
2023-02-11T08:23:14.770Z,6.53
2023-02-11T08:25:41.501Z,6.78
2023-02-11T08:28:09.335Z,6.85
2023-02-11T08:30:36.846Z,6.75
2023-02-11T08:33:04.198Z,6.43
2023-02-11T08:35:31.345Z,7.50
2023-02-11T08:37:58.502Z,6.50
2023-02-11T08:40:25.633Z,6.53
2023-02-11T08:42:52.264Z,7.28
2023-02-11T08:45:19.506Z,6.75
2023-02-11T08:47:46.164Z,6.57
2023-02-11T08:50:12.878Z,29.00
2023-02-11T08:52:39.870Z,334.52
2023-02-11T08:55:08.270Z,206.70
2023-02-11T08:57:35.109Z,69.32
2023-02-11T09:00:01.782Z,76.15
2023-02-11T09:02:30.201Z,69.82
2023-02-11T09:04:57.013Z,66.82
2023-02-11T09:07:23.660Z,65.78
2023-02-11T09:09:50.365Z,63.10
2023-02-11T09:12:17.429Z,64.82
2023-02-11T09:14:44.137Z,61.13
2023-02-11T09:17:11.005Z,62.47
2023-02-11T09:19:37.736Z,59.42
2023-02-11T09:22:05.184Z,54.50
2023-02-11T09:24:32.144Z,53.78
2023-02-11T09:26:59.249Z,51.35
2023-02-11T09:29:26.918Z,53.85
2023-02-11T09:31:53.980Z,53.78
2023-02-11T09:34:21.098Z,53.45
2023-02-11T09:36:48.542Z,52.97
2023-02-11T09:39:17.496Z,50.50
2023-02-11T09:41:56.135Z,51.15
2023-02-11T09:44:27.752Z,46.42
2023-02-11T09:47:06.724Z,52.28
2023-02-11T09:49:41.233Z,49.85
2023-02-11T09:52:18.817Z,48.75
2023-02-11T09:54:59.121Z,52.03
2023-02-11T09:57:29.557Z,47.97
2023-02-11T09:59:58.000Z,48.90
2023-02-11T10:02:25.856Z,48.00
2023-02-11T10:05:22.478Z,42.90
2023-02-11T10:07:55.246Z,34.80
2023-02-11T10:10:44.533Z,36.05
2023-02-11T10:13:40.827Z,37.28
2023-02-11T10:16:22.037Z,57.40
2023-02-11T10:18:57.972Z,40.78
2023-02-11T10:21:33.319Z,37.45
2023-02-11T10:24:01.698Z,38.50
2023-02-11T10:26:31.413Z,37.17
2023-02-11T10:29:01.007Z,41.83
2023-02-11T10:31:39.534Z,40.55
2023-02-11T10:34:07.819Z,41.67
2023-02-11T10:36:36.042Z,37.88
2023-02-11T10:39:22.589Z,39.20
2023-02-11T10:41:56.512Z,34.28
2023-02-11T10:44:31.616Z,25.70
2023-02-11T10:47:02.550Z,25.27
2023-02-11T10:50:03.893Z,22.15
2023-02-11T10:52:32.969Z,24.52
2023-02-11T10:55:02.353Z,21.30
2023-02-11T10:57:35.794Z,22.92
2023-02-11T11:00:07.388Z,23.42
2023-02-11T11:02:36.268Z,23.48
2023-02-11T11:05:20.112Z,29.55
2023-02-11T11:07:54.930Z,22.70
2023-02-11T11:10:47.272Z,21.08
2023-02-11T11:13:23.236Z,20.85
2023-02-11T11:16:19.384Z,21.58
2023-02-11T11:18:49.263Z,21.83
2023-02-11T11:21:26.445Z,29.35
2023-02-11T11:24:00.282Z,18.60
2023-02-11T11:26:29.704Z,20.88
2023-02-11T11:29:01.294Z,22.83
2023-02-11T11:31:31.881Z,22.92
2023-02-11T11:34:00.321Z,21.17
2023-02-11T11:36:37.808Z,22.98
2023-02-11T11:39:25.738Z,19.27
2023-02-11T11:42:01.974Z,21.23
2023-02-11T11:44:33.688Z,25.40
2023-02-11T11:47:12.484Z,21.52
2023-02-11T11:50:07.870Z,15.75
2023-02-11T11:53:15.850Z,17.88
2023-02-11T11:55:47.802Z,18.77
2023-02-11T11:58:16.908Z,19.88
2023-02-11T12:01:24.767Z,18.10
2023-02-11T12:04:15.464Z,17.77
2023-02-11T12:07:03.497Z,17.85
2023-02-11T12:09:59.405Z,16.67
2023-02-11T12:12:33.582Z,16.95
2023-02-11T12:15:23.186Z,16.77
2023-02-11T12:18:25.163Z,17.02
2023-02-11T12:21:11.411Z,16.10
2023-02-11T12:23:56.244Z,17.65
2023-02-11T12:26:29.883Z,14.02
2023-02-11T12:29:06.491Z,18.88
2023-02-11T12:31:40.501Z,16.15
2023-02-11T12:34:35.672Z,14.93
2023-02-11T12:37:07.547Z,17.50
2023-02-11T12:39:55.080Z,16.90
2023-02-11T12:43:08.306Z,15.88
2023-02-11T12:46:17.248Z,16.55
2023-02-11T12:49:06.012Z,14.80
2023-02-11T12:52:07.797Z,15.82
2023-02-11T12:54:47.623Z,15.50
2023-02-11T12:57:18.529Z,14.90
2023-02-11T13:00:21.320Z,13.77
2023-02-11T13:03:01.123Z,14.27
2023-02-11T13:05:29.266Z,14.38
2023-02-11T13:08:29.581Z,14.98
2023-02-11T13:11:04.442Z,13.68
2023-02-11T13:13:40.840Z,13.30
2023-02-11T13:16:14.481Z,17.50
2023-02-11T13:18:41.453Z,13.98
2023-02-11T13:21:18.022Z,12.68
2023-02-11T13:23:58.830Z,17.77
2023-02-11T13:26:29.684Z,13.45
2023-02-11T13:29:24.418Z,13.40
2023-02-11T13:32:05.225Z,16.98
2023-02-11T13:34:44.122Z,12.55
2023-02-11T13:37:26.824Z,13.13
2023-02-11T13:40:04.253Z,12.88
2023-02-11T13:42:31.569Z,13.18
2023-02-11T13:44:58.284Z,12.38
2023-02-11T13:47:31.750Z,12.73
2023-02-11T13:49:58.863Z,11.93
2023-02-11T13:52:28.595Z,13.65
2023-02-11T13:54:57.308Z,11.90
2023-02-11T13:57:33.012Z,13.60
2023-02-11T14:00:06.214Z,14.23
2023-02-11T14:02:56.977Z,12.43
2023-02-11T14:05:47.366Z,13.65
2023-02-11T14:08:37.693Z,12.98
2023-02-11T14:11:30.028Z,13.23
2023-02-11T14:14:04.130Z,11.95
2023-02-11T14:16:38.348Z,12.57
2023-02-11T14:19:06.718Z,13.43
2023-02-11T14:21:38.336Z,15.10
2023-02-11T14:24:04.993Z,12.18
2023-02-11T14:26:52.204Z,14.77
2023-02-11T14:29:21.928Z,12.20
2023-02-11T14:32:07.032Z,10.25
2023-02-11T14:35:09.547Z,11.45
2023-02-11T14:37:50.659Z,11.45
2023-02-11T14:40:34.253Z,11.70
2023-02-11T14:43:07.476Z,13.90
2023-02-11T14:45:34.791Z,15.43
2023-02-11T14:48:29.148Z,15.63
2023-02-11T14:51:10.690Z,23.88
2023-02-11T14:53:37.465Z,14.13
2023-02-11T14:56:04.805Z,11.48
2023-02-11T14:58:32.281Z,11.02
2023-02-11T15:01:06.673Z,10.88
2023-02-11T15:03:41.704Z,13.50
2023-02-11T15:06:34.419Z,13.85
2023-02-11T15:09:05.472Z,13.88
2023-02-11T15:11:35.167Z,12.40
2023-02-11T15:14:10.279Z,11.82
2023-02-11T15:16:42.008Z,11.30
2023-02-11T15:19:11.944Z,13.63
2023-02-11T15:21:39.041Z,65.38
2023-02-11T15:24:24.020Z,15.45
2023-02-11T15:27:16.145Z,14.32
2023-02-11T15:29:49.436Z,12.68
2023-02-11T15:32:24.942Z,17.30
2023-02-11T15:34:55.859Z,12.43
2023-02-11T15:37:28.186Z,14.05
2023-02-11T15:39:55.501Z,15.43
2023-02-11T15:42:32.623Z,13.40
2023-02-11T15:45:20.644Z,35.85
2023-02-11T15:47:50.116Z,18.85
2023-02-11T15:50:28.298Z,18.52
2023-02-11T15:52:56.426Z,14.63
2023-02-11T15:55:24.091Z,14.20
2023-02-11T15:57:56.292Z,11.63
2023-02-11T16:00:24.953Z,14.52
2023-02-11T16:02:51.775Z,13.70
2023-02-11T16:05:37.283Z,10.65
2023-02-11T16:08:34.669Z,10.63
2023-02-11T16:11:09.331Z,11.45
2023-02-11T16:13:48.595Z,12.45
2023-02-11T16:16:18.302Z,9.20
2023-02-11T16:19:02.145Z,8.05
2023-02-11T16:21:51.500Z,8.02
2023-02-11T16:24:21.572Z,9.73
2023-02-11T16:26:50.235Z,8.93
2023-02-11T16:29:18.531Z,9.50
2023-02-11T16:31:46.864Z,9.38
2023-02-11T16:34:15.196Z,10.05
2023-02-11T16:36:44.497Z,8.77
2023-02-11T16:39:11.357Z,8.68
2023-02-11T16:41:38.530Z,8.23
2023-02-11T16:44:05.671Z,9.57
2023-02-11T16:46:32.597Z,10.00
2023-02-11T16:49:01.284Z,9.23
2023-02-11T16:51:28.698Z,11.40
2023-02-11T16:53:55.752Z,11.73
2023-02-11T16:56:22.666Z,12.05
2023-02-11T16:58:49.363Z,10.07
2023-02-11T17:01:17.359Z,13.13
2023-02-11T17:03:45.991Z,8.82
2023-02-11T17:06:15.132Z,15.10
2023-02-11T17:08:42.593Z,14.07
2023-02-11T17:11:10.821Z,13.80
2023-02-11T17:13:39.758Z,10.68
2023-02-11T17:16:12.276Z,8.68
2023-02-11T17:18:39.639Z,9.32
2023-02-11T17:21:07.848Z,10.70
2023-02-11T17:23:35.669Z,10.30
2023-02-11T17:26:05.312Z,7.95
2023-02-11T17:28:32.669Z,10.13
2023-02-11T17:31:00.975Z,9.02
2023-02-11T17:33:29.936Z,8.43
2023-02-11T17:35:57.900Z,10.95
2023-02-11T17:38:25.460Z,9.23
2023-02-11T17:40:59.235Z,10.43
2023-02-11T17:43:26.062Z,9.10
2023-02-11T17:45:54.472Z,9.25
2023-02-11T17:48:22.291Z,8.60
2023-02-11T17:50:49.522Z,7.90
2023-02-11T17:53:17.387Z,7.35
2023-02-11T17:55:44.893Z,7.38
2023-02-11T17:58:12.238Z,10.00
2023-02-11T18:00:39.905Z,8.63
2023-02-11T18:03:06.837Z,9.07
2023-02-11T18:05:35.527Z,8.93
2023-02-11T18:08:04.245Z,11.88
2023-02-11T18:10:34.232Z,8.23
2023-02-11T18:13:02.303Z,8.63
2023-02-11T18:15:29.267Z,10.88
2023-02-11T18:17:56.079Z,8.75
2023-02-11T18:20:22.843Z,10.68
2023-02-11T18:22:50.242Z,9.65
2023-02-11T18:25:17.761Z,7.47
2023-02-11T18:27:45.292Z,10.02
2023-02-11T18:30:15.500Z,8.48
2023-02-11T18:32:42.656Z,6.95
2023-02-11T18:35:15.268Z,7.15
2023-02-11T18:37:42.378Z,9.45
2023-02-11T18:40:13.131Z,9.02
2023-02-11T18:42:40.269Z,7.65
2023-02-11T18:45:11.705Z,7.30
2023-02-11T18:47:40.488Z,7.22
2023-02-11T18:50:10.035Z,7.72
2023-02-11T18:52:39.947Z,6.85
2023-02-11T18:55:08.653Z,8.88
2023-02-11T18:57:37.024Z,8.90
2023-02-11T19:00:05.424Z,8.35
2023-02-11T19:02:32.925Z,8.02
2023-02-11T19:05:09.881Z,7.05
2023-02-11T19:07:39.743Z,6.50
2023-02-11T19:10:07.746Z,7.47
2023-02-11T19:12:35.879Z,7.07
2023-02-11T19:15:04.136Z,6.20
2023-02-11T19:17:31.452Z,8.98
2023-02-11T19:19:59.127Z,9.43
2023-02-11T19:22:26.264Z,6.82
2023-02-11T19:24:54.189Z,8.10
2023-02-11T19:27:21.338Z,6.22
2023-02-11T19:29:48.226Z,9.18
2023-02-11T19:32:16.485Z,7.63
2023-02-11T19:34:44.270Z,7.28
2023-02-11T19:37:12.759Z,8.32
2023-02-11T19:39:43.918Z,7.35
2023-02-11T19:42:12.440Z,6.43
2023-02-11T19:44:41.700Z,7.10
2023-02-11T19:47:12.619Z,6.90
2023-02-11T19:49:39.585Z,7.15
2023-02-11T19:52:06.581Z,7.80
2023-02-11T19:54:38.150Z,6.43
2023-02-11T19:57:06.270Z,8.18
2023-02-11T19:59:33.583Z,9.35
2023-02-11T20:02:02.993Z,7.57
2023-02-11T20:04:34.414Z,7.82
2023-02-11T20:07:02.599Z,7.82
2023-02-11T20:09:31.868Z,7.72
2023-02-11T20:11:59.747Z,6.70
2023-02-11T20:14:28.005Z,7.40
2023-02-11T20:16:55.363Z,6.45
2023-02-11T20:19:22.723Z,11.52
2023-02-11T20:21:52.349Z,6.72
2023-02-11T20:24:19.346Z,7.18
2023-02-11T20:26:48.840Z,7.07
2023-02-11T20:29:16.781Z,8.60
2023-02-11T20:31:44.052Z,9.15
2023-02-11T20:34:12.084Z,8.25
2023-02-11T20:36:40.793Z,43.55
2023-02-11T20:39:07.884Z,17.10
2023-02-11T20:41:36.124Z,21.77
2023-02-11T20:44:04.704Z,15.93
2023-02-11T20:46:33.131Z,13.70
2023-02-11T20:49:00.186Z,13.18
2023-02-11T20:51:28.343Z,14.90
2023-02-11T20:53:55.206Z,13.88
2023-02-11T20:56:24.321Z,12.35
2023-02-11T20:58:51.264Z,12.82
2023-02-11T21:01:26.085Z,13.52
2023-02-11T21:03:57.976Z,14.02
2023-02-11T21:06:26.684Z,11.40
2023-02-11T21:08:54.144Z,16.25
2023-02-11T21:11:21.238Z,16.55
2023-02-11T21:13:48.772Z,17.30
2023-02-11T21:16:16.669Z,19.75
2023-02-11T21:18:44.825Z,14.68
2023-02-11T21:21:12.107Z,14.60
2023-02-11T21:23:42.178Z,14.80
2023-02-11T21:26:09.530Z,14.77
2023-02-11T21:28:37.992Z,17.13
2023-02-11T21:31:06.299Z,13.75
2023-02-11T21:33:33.803Z,13.38
2023-02-11T21:36:04.620Z,15.40
2023-02-11T21:38:33.096Z,13.20
2023-02-11T21:41:05.835Z,17.33
2023-02-11T21:43:32.848Z,11.63
2023-02-11T21:45:59.932Z,11.90
2023-02-11T21:48:29.832Z,11.48
2023-02-11T21:50:56.620Z,12.10
2023-02-11T21:53:23.516Z,11.70
2023-02-11T21:55:51.404Z,10.80
2023-02-11T21:58:18.876Z,10.82
2023-02-11T22:00:45.563Z,12.15
2023-02-11T22:03:12.154Z,14.88
2023-02-11T22:05:40.557Z,9.68
2023-02-11T22:08:07.207Z,11.20
2023-02-11T22:10:33.882Z,10.88
2023-02-11T22:13:00.494Z,11.40
2023-02-11T22:15:27.104Z,12.65
2023-02-11T22:17:53.739Z,11.32
2023-02-11T22:20:20.434Z,11.95
2023-02-11T22:22:47.287Z,12.07
2023-02-11T22:25:13.986Z,10.38
2023-02-11T22:27:40.596Z,11.20
